createdAt,value
2023-02-06T00:00:40.529Z,100.00
2023-02-06T00:03:07.968Z,100.00
2023-02-06T00:05:35.812Z,100.00
2023-02-06T00:08:03.488Z,100.00
2023-02-06T00:10:31.021Z,100.00
2023-02-06T00:13:00.147Z,100.00
2023-02-06T00:15:27.602Z,100.00
2023-02-06T00:20:43.841Z,100.00
2023-02-06T00:23:11.284Z,100.00
2023-02-06T00:25:38.784Z,100.00
2023-02-06T00:28:07.834Z,100.00
2023-02-06T00:30:35.450Z,100.00
2023-02-06T00:33:02.952Z,100.00
2023-02-06T00:35:30.469Z,100.00
2023-02-06T00:37:59.662Z,100.00
2023-02-06T00:40:28.220Z,100.00
2023-02-06T00:42:55.649Z,100.00
2023-02-06T00:45:24.411Z,100.00
2023-02-06T00:47:51.877Z,100.00
2023-02-06T00:50:19.610Z,100.00
2023-02-06T00:52:47.287Z,100.00
2023-02-06T00:55:15.023Z,100.00
2023-02-06T00:57:42.462Z,100.00
2023-02-06T01:00:11.539Z,100.00
2023-02-06T01:02:40.332Z,100.00
2023-02-06T01:05:08.470Z,100.00
2023-02-06T01:07:38.563Z,100.00
2023-02-06T01:10:07.737Z,100.00
2023-02-06T01:12:35.387Z,100.00
2023-02-06T01:15:02.969Z,100.00
2023-02-06T01:17:32.830Z,100.00
2023-02-06T01:20:02.017Z,100.00
2023-02-06T01:22:29.703Z,99.83
2023-02-06T01:24:57.182Z,100.00
2023-02-06T01:27:24.635Z,100.00
2023-02-06T01:29:52.056Z,100.00
2023-02-06T01:32:19.662Z,100.00
2023-02-06T01:34:48.711Z,100.00
2023-02-06T01:37:17.703Z,100.00
2023-02-06T01:39:45.212Z,100.00
2023-02-06T01:42:18.846Z,100.00
2023-02-06T01:44:46.349Z,99.98
2023-02-06T01:50:12.898Z,99.21
2023-02-06T01:52:41.736Z,99.24
2023-02-06T01:55:09.306Z,98.44
2023-02-06T01:57:36.740Z,98.71
2023-02-06T02:00:09.651Z,98.17
2023-02-06T02:02:40.749Z,98.11
2023-02-06T02:05:09.005Z,98.92
2023-02-06T02:07:37.727Z,99.88
2023-02-06T02:10:07.094Z,98.72
2023-02-06T02:12:34.629Z,98.58
2023-02-06T02:15:02.162Z,99.00
2023-02-06T02:17:36.044Z,98.30
2023-02-06T02:20:34.334Z,97.41
2023-02-06T02:23:07.561Z,98.47
2023-02-06T02:25:52.093Z,98.53
2023-02-06T02:28:31.751Z,98.22
2023-02-06T02:31:13.168Z,97.46
2023-02-06T02:34:02.453Z,97.77
2023-02-06T02:36:35.242Z,97.93
2023-02-06T02:39:08.747Z,97.88
2023-02-06T02:41:41.194Z,97.83
2023-02-06T02:44:10.820Z,99.05
2023-02-06T02:46:39.779Z,99.92
2023-02-06T02:49:10.347Z,100.00
2023-02-06T02:51:39.924Z,100.00
2023-02-06T02:54:07.409Z,100.00
2023-02-06T02:56:34.931Z,100.00
2023-02-06T02:59:06.926Z,100.00
2023-02-06T03:01:37.699Z,100.00
2023-02-06T03:04:08.014Z,100.00
2023-02-06T03:06:45.799Z,100.00
2023-02-06T03:09:21.519Z,99.95
2023-02-06T03:11:55.160Z,99.90
2023-02-06T03:17:32.074Z,98.47
2023-02-06T03:20:00.788Z,97.66
2023-02-06T03:22:30.093Z,98.21
2023-02-06T03:24:58.726Z,99.17
2023-02-06T03:27:27.265Z,99.37
2023-02-06T03:29:55.830Z,99.22
2023-02-06T03:32:26.249Z,98.57
2023-02-06T03:34:56.980Z,98.46
2023-02-06T03:37:25.355Z,97.65
2023-02-06T03:39:54.531Z,97.88
2023-02-06T03:42:23.224Z,96.90
2023-02-06T03:44:52.679Z,97.33
2023-02-06T03:47:21.310Z,96.55
2023-02-06T03:49:49.052Z,96.99
2023-02-06T03:52:20.083Z,99.85
2023-02-06T03:54:50.522Z,100.00
2023-02-06T03:57:20.377Z,99.02
2023-02-06T03:59:48.249Z,99.26
2023-02-06T04:02:17.126Z,98.77
2023-02-06T04:04:47.422Z,100.00
2023-02-06T04:07:18.923Z,100.00
2023-02-06T04:09:46.541Z,100.00
2023-02-06T04:12:15.441Z,100.00
2023-02-06T04:14:44.336Z,99.87
2023-02-06T04:17:12.365Z,98.92
2023-02-06T04:19:39.936Z,99.50
2023-02-06T04:22:07.905Z,98.55
2023-02-06T04:24:36.671Z,98.19
2023-02-06T04:27:04.106Z,97.37
2023-02-06T04:29:31.740Z,97.19
2023-02-06T04:34:50.255Z,97.67
2023-02-06T04:37:17.731Z,97.67
2023-02-06T04:39:45.175Z,97.46
2023-02-06T04:42:12.620Z,98.46
2023-02-06T04:44:40.083Z,98.09
2023-02-06T04:47:08.501Z,97.67
2023-02-06T04:49:35.915Z,97.09
2023-02-06T04:52:05.033Z,97.57
2023-02-06T04:54:32.867Z,99.47
2023-02-06T04:57:00.373Z,100.00
2023-02-06T04:59:28.048Z,100.00
2023-02-06T05:04:53.940Z,100.00
2023-02-06T05:07:22.771Z,100.00
2023-02-06T05:09:50.191Z,100.00
2023-02-06T05:12:17.609Z,100.00
2023-02-06T05:17:40.287Z,98.94
2023-02-06T05:20:08.486Z,98.82
2023-02-06T05:22:59.986Z,98.85
2023-02-06T05:25:28.803Z,99.57
2023-02-06T05:27:57.294Z,98.48
2023-02-06T05:30:24.864Z,98.29
2023-02-06T05:32:52.753Z,99.25
2023-02-06T05:35:20.245Z,98.58
2023-02-06T05:37:47.638Z,99.30
2023-02-06T05:40:15.418Z,99.35
2023-02-06T05:42:44.423Z,99.58
2023-02-06T05:45:11.833Z,98.63
2023-02-06T05:47:39.267Z,98.48
2023-02-06T05:50:07.291Z,98.98
2023-02-06T05:52:34.839Z,98.91
2023-02-06T05:55:02.295Z,98.82
2023-02-06T05:57:29.716Z,98.46
2023-02-06T06:02:36.243Z,98.64
2023-02-06T06:05:03.798Z,98.61
2023-02-06T06:07:31.551Z,98.62
2023-02-06T06:09:59.054Z,99.08
2023-02-06T06:12:26.495Z,99.55
2023-02-06T06:14:56.208Z,98.88
2023-02-06T06:17:23.738Z,98.96
2023-02-06T06:19:52.497Z,98.99
2023-02-06T06:22:19.946Z,99.29
2023-02-06T06:24:47.377Z,98.81
2023-02-06T06:27:14.822Z,99.21
2023-02-06T06:29:42.249Z,99.09
2023-02-06T06:32:09.707Z,99.34
2023-02-06T06:34:37.121Z,100.00
2023-02-06T06:37:06.080Z,98.97
2023-02-06T06:39:33.554Z,99.90
2023-02-06T06:42:00.967Z,99.81
2023-02-06T06:44:28.455Z,99.09
2023-02-06T06:46:55.854Z,99.51
2023-02-06T06:52:24.343Z,100.00
2023-02-06T06:54:52.876Z,99.67
2023-02-06T06:57:20.846Z,99.25
2023-02-06T06:59:48.267Z,99.91
2023-02-06T07:02:16.270Z,100.00
2023-02-06T07:04:43.834Z,99.18
2023-02-06T07:07:11.284Z,100.00
2023-02-06T07:09:40.048Z,99.89
2023-02-06T07:12:07.993Z,100.00
2023-02-06T07:14:35.471Z,99.84
2023-02-06T07:17:03.152Z,99.42
2023-02-06T07:19:30.600Z,99.86
2023-02-06T07:21:58.044Z,99.40
2023-02-06T07:24:25.484Z,99.76
2023-02-06T07:26:54.232Z,98.76
2023-02-06T07:29:21.637Z,99.21
2023-02-06T07:31:49.390Z,99.50
2023-02-06T07:37:05.616Z,99.09
2023-02-06T07:39:33.069Z,98.65
2023-02-06T07:42:01.821Z,99.18
2023-02-06T07:44:59.132Z,97.87
2023-02-06T07:47:26.565Z,98.57
2023-02-06T07:52:56.541Z,98.54
2023-02-06T07:55:24.010Z,99.25
2023-02-06T07:57:52.760Z,99.68
2023-02-06T08:00:20.556Z,99.77
2023-02-06T08:02:47.973Z,99.94
2023-02-06T08:05:15.440Z,100.00
2023-02-06T08:10:45.417Z,99.47
2023-02-06T08:13:14.165Z,99.01
2023-02-06T08:15:41.916Z,99.21
2023-02-06T08:18:09.403Z,99.76
2023-02-06T08:20:36.801Z,99.18
2023-02-06T08:23:04.222Z,99.14
2023-02-06T08:25:31.647Z,100.00
2023-02-06T08:28:00.785Z,100.00
2023-02-06T08:30:29.640Z,100.00
2023-02-06T08:32:57.159Z,100.00
2023-02-06T08:35:24.576Z,97.95
2023-02-06T08:37:51.980Z,99.61
2023-02-06T08:40:21.054Z,100.00
2023-02-06T08:42:51.274Z,100.00
2023-02-06T08:45:18.832Z,100.00
2023-02-06T08:47:47.675Z,100.00
2023-02-06T08:50:15.281Z,100.00
2023-02-06T08:52:42.766Z,98.72
2023-02-06T08:55:10.202Z,99.40
2023-02-06T08:57:37.665Z,98.46
2023-02-06T09:00:05.141Z,99.87
2023-02-06T09:02:32.745Z,98.90
2023-02-06T09:05:01.536Z,99.40
2023-02-06T09:07:29.011Z,99.17
2023-02-06T09:09:56.411Z,99.29
2023-02-06T09:15:12.403Z,99.45
2023-02-06T09:17:39.825Z,97.19
2023-02-06T09:20:10.003Z,97.87
2023-02-06T09:25:40.526Z,97.03
2023-02-06T09:28:07.957Z,96.22
2023-02-06T09:30:35.443Z,96.67
2023-02-06T09:33:02.870Z,96.68
2023-02-06T09:35:31.778Z,94.87
2023-02-06T09:37:59.227Z,95.23
2023-02-06T09:40:27.983Z,94.25
2023-02-06T09:42:55.844Z,94.72
2023-02-06T09:48:28.433Z,92.93
2023-02-06T09:51:04.704Z,92.76
2023-02-06T09:53:37.920Z,93.61
2023-02-06T09:56:15.570Z,94.10
2023-02-06T09:58:47.319Z,96.05
2023-02-06T10:01:19.229Z,96.30
2023-02-06T10:03:55.341Z,94.99
2023-02-06T10:06:26.866Z,94.56
2023-02-06T10:09:01.265Z,93.26
2023-02-06T10:11:47.708Z,92.21
2023-02-06T10:14:22.105Z,92.41
2023-02-06T10:16:52.056Z,92.40
2023-02-06T10:19:24.625Z,90.67
2023-02-06T10:21:56.977Z,91.51
2023-02-06T10:24:32.956Z,90.93
2023-02-06T10:27:02.772Z,91.46
2023-02-06T10:29:32.959Z,90.63
2023-02-06T10:32:10.031Z,89.73
2023-02-06T10:34:57.959Z,90.02
2023-02-06T10:37:57.260Z,90.25
2023-02-06T10:40:36.652Z,89.89
2023-02-06T10:43:11.595Z,89.51
2023-02-06T10:45:44.853Z,89.21
2023-02-06T10:48:21.351Z,89.36
2023-02-06T10:50:55.921Z,88.59
2023-02-06T10:53:27.459Z,87.47
2023-02-06T10:55:57.774Z,88.46
2023-02-06T10:58:27.002Z,88.16
2023-02-06T11:00:55.635Z,87.08
2023-02-06T11:03:26.895Z,88.31
2023-02-06T11:05:54.636Z,88.85
2023-02-06T11:08:26.693Z,88.77
2023-02-06T11:10:54.562Z,88.28
2023-02-06T11:13:26.766Z,88.19
2023-02-06T11:15:58.958Z,87.95
2023-02-06T11:18:29.860Z,86.64
2023-02-06T11:20:57.815Z,87.39
2023-02-06T11:23:28.399Z,87.88
2023-02-06T11:26:04.777Z,86.84
2023-02-06T11:28:34.185Z,87.19
2023-02-06T11:31:03.516Z,88.98
2023-02-06T11:33:37.884Z,89.23
2023-02-06T11:36:06.938Z,90.29
2023-02-06T11:38:35.782Z,90.43
2023-02-06T11:41:04.801Z,91.31
2023-02-06T11:43:33.742Z,91.75
2023-02-06T11:46:13.308Z,92.48
2023-02-06T11:48:42.062Z,93.83
2023-02-06T11:51:10.293Z,94.72
2023-02-06T11:53:39.227Z,94.32
2023-02-06T11:56:16.950Z,94.84
2023-02-06T11:58:44.760Z,93.99
2023-02-06T12:01:19.907Z,93.53
2023-02-06T12:03:55.042Z,94.92
2023-02-06T12:06:28.509Z,95.08
2023-02-06T12:08:58.533Z,94.71
2023-02-06T12:11:27.198Z,93.83
2023-02-06T12:13:58.726Z,94.05
2023-02-06T12:16:27.120Z,91.84
2023-02-06T12:18:56.160Z,91.84
2023-02-06T12:21:29.948Z,92.92
2023-02-06T12:24:01.524Z,93.21
2023-02-06T12:26:30.667Z,93.79
2023-02-06T12:29:01.435Z,93.59
2023-02-06T12:31:37.511Z,93.43
2023-02-06T12:34:12.416Z,94.65
2023-02-06T12:39:33.258Z,95.65
2023-02-06T12:42:17.009Z,95.51
2023-02-06T12:44:50.985Z,94.79
2023-02-06T12:47:24.129Z,93.44
2023-02-06T12:49:56.774Z,92.19
2023-02-06T12:52:30.725Z,90.57
2023-02-06T12:55:09.186Z,90.65
2023-02-06T12:57:38.592Z,89.67
2023-02-06T13:00:21.648Z,90.26
2023-02-06T13:03:05.675Z,89.15
2023-02-06T13:05:35.979Z,90.17
2023-02-06T13:08:07.165Z,90.14
2023-02-06T13:10:37.228Z,90.13
2023-02-06T13:13:05.046Z,91.02
2023-02-06T13:15:36.040Z,92.44
2023-02-06T13:18:03.808Z,92.69
2023-02-06T13:20:33.437Z,92.47
2023-02-06T13:23:23.251Z,92.81
2023-02-06T13:25:52.557Z,92.71
2023-02-06T13:28:58.611Z,92.46
2023-02-06T13:31:29.066Z,92.75
2023-02-06T13:33:59.902Z,93.61
2023-02-06T13:36:42.301Z,92.45
2023-02-06T13:39:25.210Z,94.18
2023-02-06T13:41:54.469Z,95.95
2023-02-06T13:44:25.823Z,95.30
2023-02-06T13:47:19.315Z,95.95
2023-02-06T13:50:26.183Z,94.53
2023-02-06T13:53:17.782Z,93.80
2023-02-06T13:55:53.870Z,93.94
2023-02-06T13:58:37.211Z,93.77
2023-02-06T14:01:05.788Z,92.80
2023-02-06T14:06:37.744Z,93.65
2023-02-06T14:09:14.191Z,94.15
2023-02-06T14:12:07.223Z,95.65
2023-02-06T14:14:47.103Z,95.69
2023-02-06T14:17:22.068Z,94.72
2023-02-06T14:19:55.047Z,94.27
2023-02-06T14:22:31.269Z,93.03
2023-02-06T14:25:17.907Z,91.09
2023-02-06T14:27:54.987Z,90.51
2023-02-06T14:33:26.200Z,90.65
2023-02-06T14:36:03.452Z,90.05
2023-02-06T14:38:44.462Z,89.50
2023-02-06T14:41:12.054Z,87.93
2023-02-06T14:43:41.960Z,87.89
2023-02-06T14:46:12.783Z,87.42
2023-02-06T14:48:46.236Z,86.98
2023-02-06T14:51:25.385Z,87.55
2023-02-06T14:53:55.454Z,87.47
2023-02-06T14:56:28.176Z,89.18
2023-02-06T14:58:55.766Z,89.79
2023-02-06T15:04:28.135Z,90.76
2023-02-06T15:06:57.175Z,91.54
2023-02-06T15:09:28.102Z,91.69
2023-02-06T15:11:57.288Z,90.72
2023-02-06T15:14:26.689Z,91.71
2023-02-06T15:16:56.666Z,91.34
2023-02-06T15:22:28.029Z,90.60
2023-02-06T15:25:01.939Z,91.23
2023-02-06T15:27:31.442Z,92.11
2023-02-06T15:29:59.475Z,93.18
2023-02-06T15:32:30.246Z,92.03
2023-02-06T15:34:57.965Z,91.91
2023-02-06T15:37:30.000Z,92.88
2023-02-06T15:40:00.838Z,93.95
2023-02-06T15:42:28.265Z,93.42
2023-02-06T15:44:55.769Z,92.90
2023-02-06T15:47:23.369Z,92.33
2023-02-06T15:49:51.751Z,91.96
2023-02-06T15:52:35.438Z,92.69
2023-02-06T15:58:06.286Z,94.33
2023-02-06T16:00:35.876Z,93.77
2023-02-06T16:03:05.767Z,93.76
2023-02-06T16:05:35.507Z,92.70
2023-02-06T16:10:54.325Z,91.73
2023-02-06T16:13:24.462Z,91.91
2023-02-06T16:16:08.294Z,94.63
2023-02-06T16:18:39.532Z,95.08
2023-02-06T16:21:21.061Z,94.23
2023-02-06T16:23:49.674Z,93.87
2023-02-06T16:26:20.519Z,93.78
2023-02-06T16:29:01.121Z,95.26
2023-02-06T16:31:30.602Z,94.70
2023-02-06T16:34:02.977Z,94.85
2023-02-06T16:36:32.125Z,94.69
2023-02-06T16:39:04.068Z,94.69
2023-02-06T16:41:35.195Z,96.21
2023-02-06T16:44:04.649Z,96.78
2023-02-06T16:46:32.244Z,96.20
2023-02-06T16:52:02.594Z,95.64
2023-02-06T16:54:31.815Z,95.31
2023-02-06T16:59:38.589Z,95.29
2023-02-06T17:02:13.438Z,94.37
2023-02-06T17:04:41.078Z,94.93
2023-02-06T17:07:13.683Z,94.54
2023-02-06T17:09:41.351Z,94.13
2023-02-06T17:12:12.701Z,93.37
2023-02-06T17:14:42.628Z,92.63
2023-02-06T17:17:12.289Z,92.45
2023-02-06T17:19:39.982Z,91.59
2023-02-06T17:22:08.115Z,93.04
2023-02-06T17:24:35.914Z,92.85
2023-02-06T17:27:03.427Z,93.00
2023-02-06T17:29:32.721Z,92.88
2023-02-06T17:32:02.855Z,93.58
2023-02-06T17:37:28.790Z,93.43
2023-02-06T17:39:56.254Z,95.44
2023-02-06T17:42:25.503Z,96.66
2023-02-06T17:44:54.958Z,96.59
2023-02-06T17:47:24.233Z,97.86
2023-02-06T17:49:51.700Z,98.36
2023-02-06T17:52:19.330Z,98.90
2023-02-06T17:54:46.765Z,98.96
2023-02-06T17:57:14.495Z,98.54
2023-02-06T17:59:42.089Z,96.71
2023-02-06T18:02:12.532Z,96.44
2023-02-06T18:04:41.547Z,96.97
2023-02-06T18:07:09.142Z,97.67
2023-02-06T18:09:36.571Z,96.71
2023-02-06T18:12:04.306Z,96.07
2023-02-06T18:14:32.073Z,96.18
2023-02-06T18:16:59.549Z,95.28
2023-02-06T18:19:27.004Z,95.63
2023-02-06T18:21:55.886Z,95.47
2023-02-06T18:24:23.351Z,95.34
2023-02-06T18:26:50.780Z,94.98
2023-02-06T18:29:18.249Z,94.50
2023-02-06T18:31:46.481Z,97.15
2023-02-06T18:34:13.947Z,98.91
2023-02-06T18:36:41.483Z,98.70
2023-02-06T18:39:11.244Z,99.05
2023-02-06T18:41:56.340Z,98.50
2023-02-06T18:44:24.827Z,97.64
2023-02-06T18:46:52.429Z,98.46
2023-02-06T18:49:20.155Z,99.18
2023-02-06T18:51:47.574Z,100.00
2023-02-06T18:54:16.345Z,100.00
2023-02-06T18:56:45.338Z,100.00
2023-02-06T18:59:12.816Z,100.00
2023-02-06T19:01:40.626Z,100.00
2023-02-06T19:04:08.059Z,100.00
2023-02-06T19:06:36.595Z,100.00
2023-02-06T19:09:06.883Z,100.00
2023-02-06T19:11:36.012Z,100.00
2023-02-06T19:14:04.666Z,100.00
2023-02-06T19:16:32.676Z,100.00
2023-02-06T19:19:01.469Z,100.00
2023-02-06T19:21:28.948Z,100.00
2023-02-06T19:26:55.294Z,100.00
2023-02-06T19:29:34.616Z,100.00
2023-02-06T19:32:03.030Z,100.00
2023-02-06T19:34:30.517Z,99.00
2023-02-06T19:36:57.987Z,97.04
2023-02-06T19:39:25.925Z,96.68
2023-02-06T19:41:54.667Z,95.90
2023-02-06T19:44:22.194Z,96.92
2023-02-06T19:46:49.607Z,95.66
2023-02-06T19:49:17.038Z,95.00
2023-02-06T19:51:45.263Z,93.99
2023-02-06T19:54:12.860Z,93.99
2023-02-06T19:59:39.428Z,95.21
2023-02-06T20:02:06.852Z,95.32
2023-02-06T20:04:36.274Z,94.61
2023-02-06T20:07:03.751Z,94.60
2023-02-06T20:09:31.742Z,95.08
2023-02-06T20:11:59.498Z,95.34
2023-02-06T20:14:27.178Z,94.70
2023-02-06T20:16:56.035Z,94.75
2023-02-06T20:19:25.474Z,95.13
2023-02-06T20:21:55.291Z,96.17
2023-02-06T20:24:24.386Z,96.30
2023-02-06T20:26:56.012Z,95.59
2023-02-06T20:29:25.282Z,96.62
2023-02-06T20:34:43.952Z,95.75
2023-02-06T20:37:11.396Z,95.33
2023-02-06T20:39:39.119Z,95.21
2023-02-06T20:42:06.579Z,95.13
2023-02-06T20:44:34.059Z,94.97
2023-02-06T20:47:01.902Z,94.77
2023-02-06T20:49:31.118Z,97.39
2023-02-06T20:52:00.234Z,97.54
2023-02-06T20:54:28.181Z,98.20
2023-02-06T20:56:55.912Z,98.85
2023-02-06T20:59:23.349Z,98.56
2023-02-06T21:01:50.790Z,98.54
2023-02-06T21:04:19.205Z,97.01
2023-02-06T21:06:47.800Z,96.13
2023-02-06T21:09:17.023Z,97.49
2023-02-06T21:11:46.144Z,98.23
2023-02-06T21:14:14.189Z,99.58
2023-02-06T21:19:42.551Z,98.54
2023-02-06T21:22:10.042Z,97.50
2023-02-06T21:24:38.819Z,98.61
2023-02-06T21:27:06.258Z,98.00
2023-02-06T21:32:25.083Z,97.82
2023-02-06T21:34:52.656Z,99.49
2023-02-06T21:37:22.409Z,99.29
2023-02-06T21:39:51.176Z,98.06
2023-02-06T21:42:20.774Z,97.05
2023-02-06T21:44:48.684Z,96.21
2023-02-06T21:47:16.233Z,96.25
2023-02-06T21:49:43.693Z,95.82
2023-02-06T21:55:04.186Z,95.46
2023-02-06T22:00:35.559Z,95.39
2023-02-06T22:03:03.057Z,95.48
2023-02-06T22:05:30.750Z,94.95
2023-02-06T22:07:58.879Z,94.92
2023-02-06T22:10:27.668Z,94.67
2023-02-06T22:12:55.203Z,94.76
2023-02-06T22:15:22.807Z,94.27
2023-02-06T22:17:50.281Z,96.58
2023-02-06T22:20:17.889Z,98.15
2023-02-06T22:22:45.310Z,98.23
2023-02-06T22:25:12.760Z,97.37
2023-02-06T22:27:41.808Z,98.93
2023-02-06T22:30:10.492Z,99.52
2023-02-06T22:32:38.189Z,99.73
2023-02-06T22:35:06.727Z,99.06
2023-02-06T22:37:34.874Z,100.00
2023-02-06T22:40:02.293Z,99.36
2023-02-06T22:42:29.883Z,97.97
2023-02-06T22:44:58.611Z,99.71
2023-02-06T22:47:26.054Z,99.35
2023-02-06T22:49:53.490Z,99.14
2023-02-06T22:52:38.384Z,97.57
2023-02-06T22:55:06.612Z,97.53
2023-02-06T22:57:36.982Z,98.13
2023-02-06T23:00:11.451Z,98.56
2023-02-06T23:02:39.206Z,98.13
2023-02-06T23:05:10.412Z,97.15
2023-02-06T23:10:26.556Z,99.10
2023-02-06T23:12:53.960Z,99.00
2023-02-06T23:18:02.434Z,97.73
2023-02-06T23:20:29.890Z,97.38
2023-02-06T23:22:57.325Z,96.46
2023-02-06T23:25:24.820Z,96.52
2023-02-06T23:27:52.329Z,95.36
2023-02-06T23:30:20.179Z,95.40
2023-02-06T23:32:47.680Z,97.04
2023-02-06T23:35:16.531Z,98.09
2023-02-06T23:37:43.956Z,98.93
2023-02-06T23:40:11.806Z,99.31
2023-02-06T23:45:38.216Z,98.71
2023-02-06T23:50:55.809Z,96.65
2023-02-06T23:53:23.307Z,97.27
2023-02-06T23:55:50.791Z,97.42
